Flight Track Log - Related Links

Times and Time Zones

All times are in EDT time to prevent confusion due to time zone crossing. See the UAL252 flight status page for this flight to view local times or setup timezone preferences in your user account.

Time Position Orientation Groundspeed Altitude Reporting Facility
EDT Latitude Longitude Course Direction KTS MPH feet Rate Location/Type
Mon 03:02:50 PM 24.9236 -77.4064 299° West 451 519 5,200  Level Miami Center
Mon 03:03:00 PM 25.2324 -77.7265 310° West  Level FlightAware Approximate
Mon 03:03:50 PM 24.9381 -77.4617 286° West 288 331 7,800  Level Miami Center
Mon 03:04:00 PM 25.3006 -77.8178 299° West  Level FlightAware Approximate
Mon 03:04:50 PM 24.9983 -77.5397 310° West 237 273 11,000  Level Miami Center
Mon 03:05:00 PM 25.3638 -77.9128 310° West  Level FlightAware Approximate
Mon 03:05:50 PM 25.0461 -77.6089 307° West 268 308 13,000  Level Miami Center
Mon 03:06:00 PM 25.4358 -78.0000 308° West  Level FlightAware Approximate
Mon 03:06:50 PM 25.1083 -77.6872 311° West 302 348 15,300  Level Miami Center
Mon 03:07:00 PM 25.5022 -78.0930 308° West  Level FlightAware Approximate
Mon 03:07:50 PM 25.1725 -77.7681 311° West 336 387 17,700  Level Miami Center
Mon 03:08:00 PM 25.5682 -78.1864 299° West  Level FlightAware Approximate
Mon 03:08:50 PM 25.2369 -77.8536 310° West 352 405 19,500  Level Miami Center
Mon 03:09:50 PM 25.3031 -77.9414 310° West 364 419 21,500 1,650 Climbing Miami Center
Mon 03:10:50 PM 25.3733 -78.0294 311° West 369 425 22,800 1,450 Climbing Miami Center
Mon 03:11:50 PM 25.4417 -78.1222 309° West 380 437 24,400 1,550 Climbing Miami Center
Mon 03:12:50 PM 25.5203 -78.2083 315° West 390 449 25,900 1,300 Climbing Miami Center
Mon 03:13:50 PM 25.6117 -78.2783 325° Northwest 390 449 27,000 1,300 Climbing Miami Center
Mon 03:14:50 PM 25.7069 -78.3464 327° Northwest 404 465 28,500 1,250 Climbing Miami Center
Mon 03:15:50 PM 25.8044 -78.4192 326° Northwest 414 476 29,500 843 Climbing Miami Center
Mon 03:16:51 PM 25.9019 -78.4944 325° Northwest 420 483 30,200 750 Climbing Miami Center
Mon 03:17:50 PM 26.0161 -78.5628 332° Northwest 431 496 31,000 857 Climbing Miami Center
Mon 03:18:50 PM 26.1111 -78.6500 321° Northwest 443 510 31,900 1,000 Climbing Miami Center
Mon 03:19:50 PM 26.2189 -78.7256 328° Northwest 448 516 33,000 950 Climbing Miami Center
Mon 03:20:50 PM 26.3244 -78.8039 326° Northwest 453 521 33,800 1,100 Climbing Miami Center
Mon 03:21:50 PM 26.4297 -78.8819 326° Northwest 453 521 35,200 1,300 Climbing Miami Center
Mon 03:22:50 PM 26.5292 -78.9558 326° Northwest 446 513 36,400 850 Climbing Miami Center
Mon 03:23:50 PM 26.6325 -79.0319 327° Northwest 446 513 36,900 250 Climbing Miami Center
Mon 03:24:50 PM 26.7336 -79.1106 325° Northwest 440 506 36,900  Level Miami Center
Mon 03:25:50 PM 26.8347 -79.1847 327° Northwest 440 506 36,900  Level Miami Center
Mon 03:26:50 PM 26.9336 -79.2636 325° Northwest 440 506 36,900 50 Level Miami Center
Mon 03:27:50 PM 27.0306 -79.3403 325° Northwest 440 506 37,000  Climbing Miami Center
Mon 03:28:50 PM 27.1419 -79.4242 326° Northwest 440 506 36,900 -50 Descending Miami Center
Mon 03:29:50 PM 27.2408 -79.4989 326° Northwest 440 506 36,900 50 Level Miami Center
Mon 03:30:50 PM 27.3397 -79.5736 326° Northwest 440 506 37,000 50 Climbing Miami Center
Mon 03:31:50 PM 27.4303 -79.6436 326° Northwest 434 499 37,000  Level Miami Center
Mon 03:32:50 PM 27.5311 -79.7186 327° Northwest 434 499 37,000  Level Miami Center
Mon 03:33:50 PM 27.6400 -79.8058 325° Northwest 434 499 37,000  Level Miami Center
Mon 03:34:50 PM 27.7367 -79.8786 326° Northwest 434 499 37,000 -50 Level Miami Center
Mon 03:35:50 PM 27.8331 -79.9539 325° Northwest 427 491 36,900 -50 Descending Miami Center
Mon 03:36:50 PM 27.9236 -80.0222 326° Northwest 432 497 36,900 50 Level Miami Center
Mon 03:37:50 PM 28.0322 -80.1075 325° Northwest 437 503 37,000 50 Climbing Miami Center
Mon 03:38:50 PM 28.1308 -80.1786 328° Northwest 431 496 37,000 -50 Level Miami Center
Mon 03:39:50 PM 28.2358 -80.2383 333° Northwest 419 482 36,900 -50 Descending Miami Center
Mon 03:40:50 PM 28.3306 -80.2956 332° Northwest 414 476 36,900 33 Level Miami Center
Mon 03:42:53 PM 28.5478 -80.4231 333° Northwest 413 475 37,000  Climbing Jacksonville Center
Mon 03:43:53 PM 28.6511 -80.4844 332° Northwest 413 475 36,900 -50 Descending Jacksonville Center
Mon 03:44:53 PM 28.7547 -80.5481 332° Northwest 413 475 36,900  Level Jacksonville Center
Mon 03:45:53 PM 28.8558 -80.6097 332° Northwest 413 475 36,900  Level Jacksonville Center
Mon 03:46:53 PM 28.9614 -80.6714 333° Northwest 413 475 36,900  Level Jacksonville Center
Mon 03:47:53 PM 29.0667 -80.7331 333° Northwest 413 475 36,900  Level Jacksonville Center
Mon 03:48:53 PM 29.1722 -80.7950 333° Northwest 413 475 36,900  Level Jacksonville Center
Mon 03:49:53 PM 29.2733 -80.8547 333° Northwest 413 475 36,900  Level Jacksonville Center
Mon 03:50:53 PM 29.3744 -80.9169 332° Northwest 413 475 36,900 50 Level Jacksonville Center
Mon 03:51:53 PM 29.4756 -80.9842 330° Northwest 413 475 37,000 50 Climbing Jacksonville Center
Mon 03:52:53 PM 29.5789 -81.0442 333° Northwest 413 475 37,000  Level Jacksonville Center
Mon 03:53:53 PM 29.6800 -81.1092 331° Northwest 413 475 37,000  Level Jacksonville Center
Mon 03:54:53 PM 29.7831 -81.1697 333° Northwest 413 475 37,000  Level Jacksonville Center
Mon 03:55:53 PM 29.8861 -81.2347 331° Northwest 418 481 37,000  Level Jacksonville Center
Mon 03:56:53 PM 29.9872 -81.2956 332° Northwest 418 481 37,000 -50 Level Jacksonville Center
Mon 03:57:53 PM 30.1044 -81.3175 351° North 418 481 36,900  Descending Jacksonville Center
Mon 03:58:53 PM 30.2214 -81.3275 356° North 418 481 37,000 50 Climbing Jacksonville Center
Mon 03:59:53 PM 30.3489 -81.3400 355° North 418 481 37,000  Level Jacksonville Center
Mon 04:00:53 PM 30.4661 -81.3525 355° North 418 481 37,000  Level Jacksonville Center
Mon 04:01:53 PM 30.5831 -81.3653 355° North 418 481 37,000  Level Jacksonville Center
Mon 04:02:53 PM 30.6961 -81.3778 355° North 418 481 37,000  Level Jacksonville Center
Mon 04:03:53 PM 30.8108 -81.3906 355° North 418 481 37,000  Level Jacksonville Center
Mon 04:04:53 PM 30.9281 -81.4031 355° North 418 481 37,000  Level Jacksonville Center
Mon 04:05:53 PM 31.0406 -81.3892 North 413 475 37,000 -50 Level Jacksonville Center
Mon 04:06:53 PM 31.1575 -81.3778 North 407 468 36,900  Descending Jacksonville Center
Mon 04:07:53 PM 31.2675 -81.3322 19° North 407 468 37,000 50 Climbing Jacksonville Center
Mon 04:08:53 PM 31.3733 -81.2719 26° Northeast 415 478 37,000  Level Jacksonville Center
Mon 04:09:53 PM 31.4667 -81.2217 25° Northeast 415 478 37,000  Level Jacksonville Center
Mon 04:10:53 PM 31.5825 -81.1586 25° Northeast 417 480 37,000 -50 Level Jacksonville Center
Mon 04:11:53 PM 31.6883 -81.1006 25° Northeast 417 480 36,900 -50 Descending Jacksonville Center
Mon 04:12:53 PM 31.7939 -81.0422 25° Northeast 417 480 36,900  Level Jacksonville Center
Mon 04:13:53 PM 31.8994 -80.9864 24° Northeast 412 474 36,900 50 Level Jacksonville Center
Mon 04:14:53 PM 31.9947 -80.9306 26° Northeast 417 480 37,000 50 Climbing Jacksonville Center
Mon 04:15:53 PM 32.1128 -80.8667 25° Northeast 417 480 37,000  Level Jacksonville Center
Mon 04:16:53 PM 32.2203 -80.8078 25° Northeast 417 480 37,000  Level Jacksonville Center
Mon 04:17:53 PM 32.3156 -80.7539 26° Northeast 417 480 37,000 -50 Level Jacksonville Center
Mon 04:18:53 PM 32.4314 -80.6922 24° Northeast 417 480 36,900 -50 Descending Jacksonville Center
Mon 04:19:53 PM 32.5325 -80.6331 26° Northeast 405 466 36,900  Level Jacksonville Center
Mon 04:20:53 PM 32.6381 -80.5736 25° Northeast 405 466 36,900  Level Jacksonville Center
Mon 04:21:53 PM 32.7414 -80.5167 25° Northeast 405 466 36,900  Level Jacksonville Center
Mon 04:22:53 PM 32.8444 -80.4594 25° Northeast 399 459 36,900  Level Jacksonville Center
Mon 04:23:53 PM 32.9417 -80.4025 26° Northeast 407 468 36,900 50 Level Jacksonville Center
Mon 04:24:53 PM 33.0406 -80.3453 26° Northeast 413 475 37,000 50 Climbing Jacksonville Center
Mon 04:25:53 PM 33.1478 -80.2850 25° Northeast 413 475 37,000 -50 Level Jacksonville Center
Mon 04:26:53 PM 33.2572 -80.2272 24° Northeast 420 483 36,900 -50 Descending Jacksonville Center
Mon 04:27:53 PM 33.3603 -80.1669 26° Northeast 415 478 36,900  Level Jacksonville Center
Mon 04:28:53 PM 33.4633 -80.1067 26° Northeast 415 478 36,900  Level Jacksonville Center
Mon 04:29:53 PM 33.5664 -80.0461 26° Northeast 415 478 36,900  Level Jacksonville Center
Mon 04:30:53 PM 33.6694 -79.9878 25° Northeast 415 478 36,900  Level Jacksonville Center
Mon 04:31:53 PM 33.7744 -79.9244 27° Northeast 410 472 36,900  Level Jacksonville Center
Mon 04:32:53 PM 33.8772 -79.8658 25° Northeast 410 472 36,900  Level Jacksonville Center
Mon 04:33:53 PM 33.9822 -79.8072 25° Northeast 410 472 36,900  Level Jacksonville Center
Mon 04:34:53 PM 34.0831 -79.7433 28° Northeast 405 466 36,900  Level Jacksonville Center
Mon 04:35:53 PM 34.1878 -79.6844 25° Northeast 405 466 36,900 50 Level Jacksonville Center
Mon 04:36:53 PM 34.2844 -79.6281 26° Northeast 398 458 37,000 46 Climbing Jacksonville Center
Mon 04:38:03 PM 34.4169 -79.5594 23° Northeast 395 455 37,000  Level Washington Center
Mon 04:39:04 PM 34.5250 -79.5042 23° Northeast 395 455 37,000  Level Washington Center
Mon 04:40:05 PM 34.6272 -79.4461 25° Northeast 405 466 37,000  Level Washington Center
Mon 04:41:03 PM 34.7353 -79.3906 23° Northeast 405 466 37,000  Level Washington Center
Mon 04:42:03 PM 34.8394 -79.3347 24° Northeast 405 466 37,000 446 Level Washington Center
Mon 04:43:04 PM 34.9453 -79.2786 23° Northeast 405 466 37,900 492 Climbing Washington Center
Mon 04:44:05 PM 35.0472 -79.2225 24° Northeast 405 466 38,000 50 Climbing Washington Center
Mon 04:45:03 PM 35.1533 -79.1664 23° Northeast 405 466 38,000  Level Washington Center
Mon 04:46:03 PM 35.2594 -79.1100 23° Northeast 405 466 38,000  Level Washington Center
Mon 04:47:04 PM 35.3633 -79.0533 24° Northeast 405 466 38,000  Level Washington Center
Mon 04:48:04 PM 35.4692 -78.9942 24° Northeast 405 466 38,000  Level Washington Center
Mon 04:49:06 PM 35.5772 -78.9375 23° Northeast 405 466 38,000 -50 Level Washington Center
Mon 04:50:03 PM 35.6811 -78.8806 24° Northeast 405 466 37,900 -51 Descending Washington Center
Mon 04:51:04 PM 35.7764 -78.8281 24° Northeast 405 466 37,900  Level Washington Center
Mon 04:52:05 PM 35.8803 -78.7683 25° Northeast 405 466 37,900 50 Level Washington Center
Mon 04:53:03 PM 35.9861 -78.7083 25° Northeast 405 466 38,000 50 Climbing Washington Center
Mon 04:54:04 PM 36.0900 -78.6508 24° Northeast 405 466 38,000  Level Washington Center
Mon 04:55:04 PM 36.1978 -78.5906 24° Northeast 405 466 38,000  Level Washington Center
Mon 04:56:05 PM 36.3014 -78.5328 24° Northeast 405 466 38,000  Level Washington Center
Mon 04:57:03 PM 36.4094 -78.4722 24° Northeast 405 466 38,000  Level Washington Center
Mon 04:58:04 PM 36.5172 -78.4117 24° Northeast 405 466 38,000  Level Washington Center
Mon 04:59:04 PM 36.6228 -78.3533 24° Northeast 405 466 38,000  Level Washington Center
Mon 05:00:05 PM 36.7267 -78.2922 25° Northeast 405 466 38,000  Level Washington Center
Mon 05:01:05 PM 36.8342 -78.2311 24° Northeast 405 466 38,000 -51 Level Washington Center
Mon 05:02:03 PM 36.9419 -78.1672 25° Northeast 411 473 37,900  Descending Washington Center
Mon 05:03:04 PM 37.0478 -78.1056 25° Northeast 411 473 38,000 50 Climbing Washington Center
Mon 05:04:04 PM 37.1594 -78.0442 24° Northeast 417 480 38,000  Level Washington Center
Mon 05:05:05 PM 37.2672 -77.9797 25° Northeast 422 486 38,000  Level Washington Center
Mon 05:06:05 PM 37.3747 -77.9203 24° Northeast 422 486 38,000  Level Washington Center
Mon 05:07:03 PM 37.4822 -77.8583 25° Northeast 422 486 38,000  Level Washington Center
Mon 05:08:03 PM 37.5881 -77.7775 31° Northeast 422 486 38,000  Level Washington Center
Mon 05:09:04 PM 37.6900 -77.6861 35° Northeast 434 499 38,000  Level Washington Center
Mon 05:10:05 PM 37.7894 -77.5942 36° Northeast 445 512 38,000  Level Washington Center
Mon 05:11:03 PM 37.8889 -77.5019 36° Northeast 445 512 38,000  Level Washington Center
Mon 05:12:03 PM 37.9883 -77.4097 36° Northeast 445 512 38,000 -50 Level Washington Center
Mon 05:13:04 PM 38.0942 -77.3147 35° Northeast 434 499 37,900 -49 Descending Washington Center
Mon 05:14:05 PM 38.1914 -77.2269 35° Northeast 429 494 37,900  Level Washington Center
Mon 05:15:03 PM 38.2800 -77.1417 37° Northeast 429 494 37,900 50 Level Washington Center
Mon 05:16:04 PM 38.3833 -77.0458 36° Northeast 429 494 38,000 50 Climbing Washington Center
Mon 05:17:04 PM 38.4825 -76.9550 36° Northeast 429 494 38,000  Level Washington Center
Mon 05:18:05 PM 38.5708 -76.8717 36° Northeast 434 499 38,000 -198 Level Washington Center
Mon 05:19:05 PM 38.6678 -76.7803 36° Northeast 434 499 37,600 -645 Descending Washington Center
Mon 05:20:06 PM 38.7583 -76.6831 40° Northeast 434 499 36,700 -1,424 Descending Washington Center
Mon 05:21:03 PM 38.8508 -76.5778 42° Northeast 434 499 34,800 -1,983 Descending Washington Center
Mon 05:22:04 PM 38.9456 -76.4669 42° Northeast 434 499 32,800 -1,967 Descending Washington Center
Mon 05:23:05 PM 39.0403 -76.3586 42° Northeast 447 514 30,800 -1,918 Descending Washington Center
Mon 05:24:06 PM 39.1347 -76.2472 42° Northeast 453 521 28,900 -1,765 Descending Washington Center
Mon 05:25:04 PM 39.2353 -76.1328 41° Northeast 464 534 27,300 -1,261 Descending Washington Center
Mon 05:26:05 PM 39.3336 -76.0208 41° Northeast 464 534 26,400 -1,475 Descending Washington Center
Mon 05:27:06 PM 39.4278 -75.9086 43° Northeast 464 534 24,300 -1,932 Descending Washington Center
Mon 05:28:03 PM 39.5197 -75.7986 43° Northeast 459 528 22,600 -1,576 Descending Washington Center
Mon 05:29:04 PM 39.6072 -75.6939 43° Northeast 442 509 21,200 -1,426 Descending Washington Center
Mon 05:30:05 PM 39.6928 -75.5914 43° Northeast 428 493 19,700 -1,613 Descending Washington Center
Mon 05:31:03 PM 39.7739 -75.4942 43° Northeast 411 473 18,000 -1,664 Descending Washington Center
Mon 05:32:04 PM 39.8572 -75.3942 43° Northeast 401 461 16,400 -1,574 Descending Washington Center
Mon 05:33:05 PM 39.9361 -75.2992 43° Northeast 394 453 14,800 -1,574 Descending Washington Center
Mon 05:34:06 PM 40.0150 -75.2014 43° Northeast 394 453 13,200 -1,576 Descending Washington Center
Mon 05:35:03 PM 40.0897 -75.1089 43° Northeast 383 441 11,700 -1,543 Descending Washington Center
Mon 05:35:51 PM 40.1500 -75.0333 44° Northeast 357 411 10,500 -1,263 Descending New York TRACON
Mon 05:36:57 PM 40.2167 -74.9500 44° Northeast 299 344 9,300 -1,150 Descending New York TRACON
Mon 05:37:51 PM 40.2833 -74.8833 37° Northeast 285 328 8,200 -684 Descending New York TRACON
Mon 05:38:51 PM 40.3333 -74.8000 52° Northeast 276 318 8,000 -300 Descending New York TRACON
Mon 05:39:51 PM 40.3833 -74.7333 45° Northeast 240 276 7,600 -762 Descending New York TRACON
Mon 05:40:57 PM 40.4167 -74.6667 57° Northeast 237 273 6,400 -762 Descending New York TRACON
Mon 05:41:57 PM 40.4167 -74.6000 90° East 247 284 6,000 -600 Descending New York TRACON
Mon 05:42:57 PM 40.4000 -74.5167 105° East 236 272 5,200 -1,000 Descending New York TRACON
Mon 05:43:51 PM 40.4167 -74.4500 72° East 228 262 4,100 -842 Descending New York TRACON
Mon 05:44:51 PM 40.4500 -74.3667 62° Northeast 226 260 3,600 -524 Descending New York TRACON
Mon 05:45:57 PM 40.4833 -74.3000 57° Northeast 200 230 3,000 -300 Descending New York TRACON
Mon 05:46:51 PM 40.5167 -74.2667 37° Northeast 183 211 3,000 -211 Level New York TRACON
Mon 05:47:51 PM 40.5667 -74.2500 14° North 189 217 2,600 -810 Descending New York TRACON
Mon 05:48:57 PM 40.6167 -74.2167 27° Northeast 180 207 1,300 -950 Descending New York TRACON
Mon 05:49:51 PM 40.6500 -74.1833 37° Northeast 141 162 700 -667 Descending New York TRACON

Login

Don't have an account? Register now (free) for customized features, flight alerts, and more!